sensor_id;sensor_type;location;lat;lon;timestamp;temperature;humidity
9223;DHT22;7557;51.698;3.942;2023-05-24T00:01:55;12.30;99.90
9223;DHT22;7557;51.698;3.942;2023-05-24T00:04:22;12.40;99.90
9223;DHT22;7557;51.698;3.942;2023-05-24T00:06:50;12.40;99.90
9223;DHT22;7557;51.698;3.942;2023-05-24T00:09:19;12.40;99.90
9223;DHT22;7557;51.698;3.942;2023-05-24T00:11:48;12.50;99.90
9223;DHT22;7557;51.698;3.942;2023-05-24T00:14:15;12.60;99.90
9223;DHT22;7557;51.698;3.942;2023-05-24T00:16:43;12.60;99.90
9223;DHT22;7557;51.698;3.942;2023-05-24T00:19:11;12.60;99.90
9223;DHT22;7557;51.698;3.942;2023-05-24T00:21:43;12.60;99.90
9223;DHT22;7557;51.698;3.942;2023-05-24T00:24:10;12.60;99.90
9223;DHT22;7557;51.698;3.942;2023-05-24T00:26:37;12.60;99.90
9223;DHT22;7557;51.698;3.942;2023-05-24T00:29:06;12.60;99.90
9223;DHT22;7557;51.698;3.942;2023-05-24T00:31:33;12.60;99.90
9223;DHT22;7557;51.698;3.942;2023-05-24T00:34:00;12.60;99.90
9223;DHT22;7557;51.698;3.942;2023-05-24T00:36:28;12.60;99.90
9223;DHT22;7557;51.698;3.942;2023-05-24T00:38:55;12.50;99.90
9223;DHT22;7557;51.698;3.942;2023-05-24T00:41:22;12.50;99.90
9223;DHT22;7557;51.698;3.942;2023-05-24T00:43:51;12.50;99.90
9223;DHT22;7557;51.698;3.942;2023-05-24T00:49:37;12.50;99.90
9223;DHT22;7557;51.698;3.942;2023-05-24T00:52:05;12.50;99.90
9223;DHT22;7557;51.698;3.942;2023-05-24T00:54:33;12.50;99.90
9223;DHT22;7557;51.698;3.942;2023-05-24T00:57:01;12.40;99.90
9223;DHT22;7557;51.698;3.942;2023-05-24T00:59:28;12.40;99.90
9223;DHT22;7557;51.698;3.942;2023-05-24T01:01:55;12.40;99.90
9223;DHT22;7557;51.698;3.942;2023-05-24T01:04:23;12.40;99.90
9223;DHT22;7557;51.698;3.942;2023-05-24T01:07:08;12.40;99.90
9223;DHT22;7557;51.698;3.942;2023-05-24T01:09:49;12.40;99.90
9223;DHT22;7557;51.698;3.942;2023-05-24T01:12:27;12.40;99.90
9223;DHT22;7557;51.698;3.942;2023-05-24T01:15:06;12.30;99.90
9223;DHT22;7557;51.698;3.942;2023-05-24T01:17:43;12.30;99.90
9223;DHT22;7557;51.698;3.942;2023-05-24T01:20:14;12.30;99.90
9223;DHT22;7557;51.698;3.942;2023-05-24T01:23:16;12.20;99.90
9223;DHT22;7557;51.698;3.942;2023-05-24T01:26:13;12.20;99.90
9223;DHT22;7557;51.698;3.942;2023-05-24T01:28:46;12.20;99.90
9223;DHT22;7557;51.698;3.942;2023-05-24T01:31:15;12.20;99.90
9223;DHT22;7557;51.698;3.942;2023-05-24T01:33:44;12.20;99.90
9223;DHT22;7557;51.698;3.942;2023-05-24T01:36:11;12.10;99.90
9223;DHT22;7557;51.698;3.942;2023-05-24T01:38:39;12.10;99.90
9223;DHT22;7557;51.698;3.942;2023-05-24T01:41:17;12.10;99.90
9223;DHT22;7557;51.698;3.942;2023-05-24T01:43:52;12.10;99.90
9223;DHT22;7557;51.698;3.942;2023-05-24T01:46:28;12.00;99.90
9223;DHT22;7557;51.698;3.942;2023-05-24T01:49:02;12.00;99.90
9223;DHT22;7557;51.698;3.942;2023-05-24T01:51:35;11.90;99.90
9223;DHT22;7557;51.698;3.942;2023-05-24T01:54:05;11.90;99.90
9223;DHT22;7557;51.698;3.942;2023-05-24T01:56:34;11.80;99.90
9223;DHT22;7557;51.698;3.942;2023-05-24T01:59:05;11.80;99.90
9223;DHT22;7557;51.698;3.942;2023-05-24T02:01:33;11.80;99.90
9223;DHT22;7557;51.698;3.942;2023-05-24T02:04:01;11.80;99.90
9223;DHT22;7557;51.698;3.942;2023-05-24T02:06:28;11.80;99.90
9223;DHT22;7557;51.698;3.942;2023-05-24T02:08:55;11.80;99.90
9223;DHT22;7557;51.698;3.942;2023-05-24T02:11:22;11.80;99.90
9223;DHT22;7557;51.698;3.942;2023-05-24T02:13:50;11.80;99.90
9223;DHT22;7557;51.698;3.942;2023-05-24T02:16:19;11.80;99.90
9223;DHT22;7557;51.698;3.942;2023-05-24T02:18:48;11.80;99.90
9223;DHT22;7557;51.698;3.942;2023-05-24T02:21:15;11.80;99.90
9223;DHT22;7557;51.698;3.942;2023-05-24T02:23:43;11.80;99.90
9223;DHT22;7557;51.698;3.942;2023-05-24T02:26:10;11.80;99.90
9223;DHT22;7557;51.698;3.942;2023-05-24T02:28:39;11.80;99.90
9223;DHT22;7557;51.698;3.942;2023-05-24T02:31:06;11.80;99.90
9223;DHT22;7557;51.698;3.942;2023-05-24T02:33:35;11.80;99.90
9223;DHT22;7557;51.698;3.942;2023-05-24T02:36:03;11.80;99.90
9223;DHT22;7557;51.698;3.942;2023-05-24T02:38:30;11.80;99.90
9223;DHT22;7557;51.698;3.942;2023-05-24T02:40:57;11.80;99.90
9223;DHT22;7557;51.698;3.942;2023-05-24T02:43:25;11.80;99.90
9223;DHT22;7557;51.698;3.942;2023-05-24T02:45:52;11.80;99.90
9223;DHT22;7557;51.698;3.942;2023-05-24T02:48:19;11.80;99.90
9223;DHT22;7557;51.698;3.942;2023-05-24T02:50:48;11.70;99.90
9223;DHT22;7557;51.698;3.942;2023-05-24T02:53:15;11.70;99.90
9223;DHT22;7557;51.698;3.942;2023-05-24T02:55:42;11.70;99.90
9223;DHT22;7557;51.698;3.942;2023-05-24T02:58:11;11.70;99.90
9223;DHT22;7557;51.698;3.942;2023-05-24T03:00:38;11.70;99.90
9223;DHT22;7557;51.698;3.942;2023-05-24T03:03:05;11.70;99.90
9223;DHT22;7557;51.698;3.942;2023-05-24T03:05:33;11.70;99.90
9223;DHT22;7557;51.698;3.942;2023-05-24T03:08:01;11.60;99.90
9223;DHT22;7557;51.698;3.942;2023-05-24T03:10:28;11.60;99.90
9223;DHT22;7557;51.698;3.942;2023-05-24T03:12:56;11.60;99.90
9223;DHT22;7557;51.698;3.942;2023-05-24T03:15:23;11.60;99.90
9223;DHT22;7557;51.698;3.942;2023-05-24T03:17:50;11.60;99.90
9223;DHT22;7557;51.698;3.942;2023-05-24T03:20:18;11.70;99.90
9223;DHT22;7557;51.698;3.942;2023-05-24T03:22:48;11.70;99.90
9223;DHT22;7557;51.698;3.942;2023-05-24T03:25:16;11.70;99.90
9223;DHT22;7557;51.698;3.942;2023-05-24T03:27:44;11.70;99.90
9223;DHT22;7557;51.698;3.942;2023-05-24T03:30:12;11.70;99.90
9223;DHT22;7557;51.698;3.942;2023-05-24T03:32:39;11.80;99.90
9223;DHT22;7557;51.698;3.942;2023-05-24T03:35:07;11.80;99.90
9223;DHT22;7557;51.698;3.942;2023-05-24T03:37:36;11.80;99.90
9223;DHT22;7557;51.698;3.942;2023-05-24T03:40:05;11.90;99.90
9223;DHT22;7557;51.698;3.942;2023-05-24T03:42:35;11.90;99.90
9223;DHT22;7557;51.698;3.942;2023-05-24T03:45:03;11.90;99.90
9223;DHT22;7557;51.698;3.942;2023-05-24T03:47:31;11.90;99.90
9223;DHT22;7557;51.698;3.942;2023-05-24T03:49:59;11.90;99.90
9223;DHT22;7557;51.698;3.942;2023-05-24T03:52:26;11.90;99.90
9223;DHT22;7557;51.698;3.942;2023-05-24T03:54:54;11.90;99.90
9223;DHT22;7557;51.698;3.942;2023-05-24T03:57:21;11.80;99.90
9223;DHT22;7557;51.698;3.942;2023-05-24T03:59:50;11.80;99.90
9223;DHT22;7557;51.698;3.942;2023-05-24T04:02:18;11.90;99.90
9223;DHT22;7557;51.698;3.942;2023-05-24T04:04:45;11.90;99.90
9223;DHT22;7557;51.698;3.942;2023-05-24T04:07:13;11.90;99.90
9223;DHT22;7557;51.698;3.942;2023-05-24T04:09:41;11.90;99.90
9223;DHT22;7557;51.698;3.942;2023-05-24T04:12:08;11.90;99.90
9223;DHT22;7557;51.698;3.942;2023-05-24T04:14:36;11.90;99.90
9223;DHT22;7557;51.698;3.942;2023-05-24T04:17:05;11.90;99.90
9223;DHT22;7557;51.698;3.942;2023-05-24T04:19:33;11.90;99.90
9223;DHT22;7557;51.698;3.942;2023-05-24T04:22:00;11.90;99.90
9223;DHT22;7557;51.698;3.942;2023-05-24T04:24:28;11.90;99.90
9223;DHT22;7557;51.698;3.942;2023-05-24T04:26:56;11.90;99.90
9223;DHT22;7557;51.698;3.942;2023-05-24T04:29:24;11.90;99.90
9223;DHT22;7557;51.698;3.942;2023-05-24T04:31:52;11.90;99.90
9223;DHT22;7557;51.698;3.942;2023-05-24T04:34:22;11.90;99.90
9223;DHT22;7557;51.698;3.942;2023-05-24T04:36:50;12.00;99.90
9223;DHT22;7557;51.698;3.942;2023-05-24T04:39:18;12.00;99.90
9223;DHT22;7557;51.698;3.942;2023-05-24T04:41:46;12.00;99.90
9223;DHT22;7557;51.698;3.942;2023-05-24T04:44:15;12.00;99.90
9223;DHT22;7557;51.698;3.942;2023-05-24T04:46:43;12.10;99.90
9223;DHT22;7557;51.698;3.942;2023-05-24T04:49:11;12.10;99.90
9223;DHT22;7557;51.698;3.942;2023-05-24T04:51:40;12.10;99.90
9223;DHT22;7557;51.698;3.942;2023-05-24T04:54:07;12.10;99.90
9223;DHT22;7557;51.698;3.942;2023-05-24T04:56:35;12.20;99.90
9223;DHT22;7557;51.698;3.942;2023-05-24T04:59:04;12.20;99.90
9223;DHT22;7557;51.698;3.942;2023-05-24T05:01:32;12.20;99.90
9223;DHT22;7557;51.698;3.942;2023-05-24T05:04:01;12.20;99.90
9223;DHT22;7557;51.698;3.942;2023-05-24T05:06:30;12.30;99.90
9223;DHT22;7557;51.698;3.942;2023-05-24T05:09:01;12.30;99.90
9223;DHT22;7557;51.698;3.942;2023-05-24T05:11:28;12.30;99.90
9223;DHT22;7557;51.698;3.942;2023-05-24T05:13:56;12.40;99.90
9223;DHT22;7557;51.698;3.942;2023-05-24T05:16:23;12.40;99.90
9223;DHT22;7557;51.698;3.942;2023-05-24T05:18:51;12.50;99.90
9223;DHT22;7557;51.698;3.942;2023-05-24T05:21:19;12.60;99.90
9223;DHT22;7557;51.698;3.942;2023-05-24T05:23:46;12.70;99.90
9223;DHT22;7557;51.698;3.942;2023-05-24T05:26:15;12.80;99.90
9223;DHT22;7557;51.698;3.942;2023-05-24T05:28:43;13.00;99.90
9223;DHT22;7557;51.698;3.942;2023-05-24T05:31:10;13.00;99.90
9223;DHT22;7557;51.698;3.942;2023-05-24T05:33:38;13.10;99.90
9223;DHT22;7557;51.698;3.942;2023-05-24T05:36:06;13.20;99.90
9223;DHT22;7557;51.698;3.942;2023-05-24T05:38:33;13.20;99.90
9223;DHT22;7557;51.698;3.942;2023-05-24T05:41:01;13.30;99.90
9223;DHT22;7557;51.698;3.942;2023-05-24T05:43:30;13.30;99.90
9223;DHT22;7557;51.698;3.942;2023-05-24T05:45:58;13.40;99.90
9223;DHT22;7557;51.698;3.942;2023-05-24T05:48:26;13.40;99.90
9223;DHT22;7557;51.698;3.942;2023-05-24T05:50:53;13.40;99.90
9223;DHT22;7557;51.698;3.942;2023-05-24T05:53:23;13.50;99.90
9223;DHT22;7557;51.698;3.942;2023-05-24T05:55:51;13.50;99.90
9223;DHT22;7557;51.698;3.942;2023-05-24T05:58:19;13.50;99.90
9223;DHT22;7557;51.698;3.942;2023-05-24T06:00:48;13.50;99.90
9223;DHT22;7557;51.698;3.942;2023-05-24T06:03:15;13.50;99.90
9223;DHT22;7557;51.698;3.942;2023-05-24T06:05:42;13.50;99.90
9223;DHT22;7557;51.698;3.942;2023-05-24T06:08:10;13.50;99.90
9223;DHT22;7557;51.698;3.942;2023-05-24T06:10:37;13.50;99.90
9223;DHT22;7557;51.698;3.942;2023-05-24T06:13:05;13.50;99.90
9223;DHT22;7557;51.698;3.942;2023-05-24T06:15:33;13.50;99.90
9223;DHT22;7557;51.698;3.942;2023-05-24T06:18:02;13.50;99.90
9223;DHT22;7557;51.698;3.942;2023-05-24T06:20:29;13.50;99.90
9223;DHT22;7557;51.698;3.942;2023-05-24T06:22:57;13.60;99.90
9223;DHT22;7557;51.698;3.942;2023-05-24T06:25:24;13.60;99.90
9223;DHT22;7557;51.698;3.942;2023-05-24T06:27:55;13.60;99.90
9223;DHT22;7557;51.698;3.942;2023-05-24T06:30:22;13.70;99.90
9223;DHT22;7557;51.698;3.942;2023-05-24T06:32:51;13.70;99.90
9223;DHT22;7557;51.698;3.942;2023-05-24T06:35:20;13.80;99.90
9223;DHT22;7557;51.698;3.942;2023-05-24T06:37:47;13.70;99.90
9223;DHT22;7557;51.698;3.942;2023-05-24T06:40:15;13.80;99.90
9223;DHT22;7557;51.698;3.942;2023-05-24T06:42:43;13.80;99.90
9223;DHT22;7557;51.698;3.942;2023-05-24T06:45:11;13.90;99.90
9223;DHT22;7557;51.698;3.942;2023-05-24T06:47:38;13.90;99.90
9223;DHT22;7557;51.698;3.942;2023-05-24T06:50:07;14.00;99.90
9223;DHT22;7557;51.698;3.942;2023-05-24T06:52:36;14.10;99.90
9223;DHT22;7557;51.698;3.942;2023-05-24T06:55:04;14.20;99.90
9223;DHT22;7557;51.698;3.942;2023-05-24T06:57:32;14.30;99.90
9223;DHT22;7557;51.698;3.942;2023-05-24T06:59:59;14.40;99.90
9223;DHT22;7557;51.698;3.942;2023-05-24T07:02:27;14.50;99.90
9223;DHT22;7557;51.698;3.942;2023-05-24T07:04:54;14.50;99.90
9223;DHT22;7557;51.698;3.942;2023-05-24T07:07:22;14.50;99.90
9223;DHT22;7557;51.698;3.942;2023-05-24T07:09:51;14.70;99.90
9223;DHT22;7557;51.698;3.942;2023-05-24T07:12:18;15.00;99.90
9223;DHT22;7557;51.698;3.942;2023-05-24T07:14:46;15.20;99.90
9223;DHT22;7557;51.698;3.942;2023-05-24T07:17:13;15.30;99.90
9223;DHT22;7557;51.698;3.942;2023-05-24T07:19:41;15.30;99.90
9223;DHT22;7557;51.698;3.942;2023-05-24T07:22:11;15.20;99.90
9223;DHT22;7557;51.698;3.942;2023-05-24T07:24:38;15.30;99.90
9223;DHT22;7557;51.698;3.942;2023-05-24T07:27:08;15.30;99.90
9223;DHT22;7557;51.698;3.942;2023-05-24T07:29:36;15.40;99.90
9223;DHT22;7557;51.698;3.942;2023-05-24T07:32:04;15.50;99.90
9223;DHT22;7557;51.698;3.942;2023-05-24T07:34:31;15.60;99.90
9223;DHT22;7557;51.698;3.942;2023-05-24T07:37:00;15.70;99.90
9223;DHT22;7557;51.698;3.942;2023-05-24T07:39:27;15.90;99.90
9223;DHT22;7557;51.698;3.942;2023-05-24T07:41:55;16.00;99.90
9223;DHT22;7557;51.698;3.942;2023-05-24T07:44:24;16.00;99.90
9223;DHT22;7557;51.698;3.942;2023-05-24T07:46:52;16.00;99.90
9223;DHT22;7557;51.698;3.942;2023-05-24T07:49:20;15.90;99.90
9223;DHT22;7557;51.698;3.942;2023-05-24T07:51:48;16.00;99.90
9223;DHT22;7557;51.698;3.942;2023-05-24T07:54:15;16.10;99.90
9223;DHT22;7557;51.698;3.942;2023-05-24T07:56:42;16.30;99.90
9223;DHT22;7557;51.698;3.942;2023-05-24T07:59:10;16.40;99.90
9223;DHT22;7557;51.698;3.942;2023-05-24T08:01:39;16.50;99.90
9223;DHT22;7557;51.698;3.942;2023-05-24T08:04:08;16.50;99.90
9223;DHT22;7557;51.698;3.942;2023-05-24T08:06:36;16.50;99.90
9223;DHT22;7557;51.698;3.942;2023-05-24T08:09:03;16.70;99.90
9223;DHT22;7557;51.698;3.942;2023-05-24T08:11:32;16.80;99.90
9223;DHT22;7557;51.698;3.942;2023-05-24T08:13:59;16.90;99.90
9223;DHT22;7557;51.698;3.942;2023-05-24T08:16:27;17.00;99.90
9223;DHT22;7557;51.698;3.942;2023-05-24T08:18:56;17.20;99.90
9223;DHT22;7557;51.698;3.942;2023-05-24T08:21:24;17.30;99.90
9223;DHT22;7557;51.698;3.942;2023-05-24T08:23:52;17.40;99.90
9223;DHT22;7557;51.698;3.942;2023-05-24T08:26:20;17.40;99.90
9223;DHT22;7557;51.698;3.942;2023-05-24T08:28:49;17.40;99.90
9223;DHT22;7557;51.698;3.942;2023-05-24T08:31:16;17.40;99.90
9223;DHT22;7557;51.698;3.942;2023-05-24T08:33:43;17.40;99.90
9223;DHT22;7557;51.698;3.942;2023-05-24T08:36:16;17.40;99.90
9223;DHT22;7557;51.698;3.942;2023-05-24T08:38:44;17.50;99.90
9223;DHT22;7557;51.698;3.942;2023-05-24T08:41:11;17.70;99.90
9223;DHT22;7557;51.698;3.942;2023-05-24T08:43:38;17.60;99.90
9223;DHT22;7557;51.698;3.942;2023-05-24T08:46:08;17.50;99.90
9223;DHT22;7557;51.698;3.942;2023-05-24T08:48:44;17.30;99.90
9223;DHT22;7557;51.698;3.942;2023-05-24T08:51:13;17.20;99.90
9223;DHT22;7557;51.698;3.942;2023-05-24T08:53:43;17.30;99.90
9223;DHT22;7557;51.698;3.942;2023-05-24T08:56:15;17.40;99.90
9223;DHT22;7557;51.698;3.942;2023-05-24T08:58:44;17.50;99.90
9223;DHT22;7557;51.698;3.942;2023-05-24T09:01:13;17.80;99.90
9223;DHT22;7557;51.698;3.942;2023-05-24T09:03:41;17.80;99.90
9223;DHT22;7557;51.698;3.942;2023-05-24T09:06:10;17.60;99.90
9223;DHT22;7557;51.698;3.942;2023-05-24T09:08:39;17.40;99.90
9223;DHT22;7557;51.698;3.942;2023-05-24T09:11:11;17.30;99.90
9223;DHT22;7557;51.698;3.942;2023-05-24T09:13:41;17.40;99.90
9223;DHT22;7557;51.698;3.942;2023-05-24T09:16:09;17.50;99.90
9223;DHT22;7557;51.698;3.942;2023-05-24T09:18:36;17.60;99.90
9223;DHT22;7557;51.698;3.942;2023-05-24T09:21:04;17.70;99.90
9223;DHT22;7557;51.698;3.942;2023-05-24T09:23:33;17.70;99.90
9223;DHT22;7557;51.698;3.942;2023-05-24T09:26:06;17.60;99.90
9223;DHT22;7557;51.698;3.942;2023-05-24T09:28:36;17.70;99.90
9223;DHT22;7557;51.698;3.942;2023-05-24T09:31:04;17.70;99.90
9223;DHT22;7557;51.698;3.942;2023-05-24T09:33:32;17.70;99.90
9223;DHT22;7557;51.698;3.942;2023-05-24T09:36:01;17.70;99.90
9223;DHT22;7557;51.698;3.942;2023-05-24T09:38:29;17.70;99.90
9223;DHT22;7557;51.698;3.942;2023-05-24T09:41:01;17.70;99.80
9223;DHT22;7557;51.698;3.942;2023-05-24T09:43:28;17.70;99.30
9223;DHT22;7557;51.698;3.942;2023-05-24T09:46:03;17.70;99.10
9223;DHT22;7557;51.698;3.942;2023-05-24T09:48:31;17.60;99.80
9223;DHT22;7557;51.698;3.942;2023-05-24T09:51:02;17.60;99.90
9223;DHT22;7557;51.698;3.942;2023-05-24T09:53:31;17.60;99.00
9223;DHT22;7557;51.698;3.942;2023-05-24T09:56:00;17.50;99.40
9223;DHT22;7557;51.698;3.942;2023-05-24T09:58:30;17.60;99.80
9223;DHT22;7557;51.698;3.942;2023-05-24T10:01:07;17.70;98.90
9223;DHT22;7557;51.698;3.942;2023-05-24T10:03:35;17.80;98.80
9223;DHT22;7557;51.698;3.942;2023-05-24T10:06:04;17.80;99.00
9223;DHT22;7557;51.698;3.942;2023-05-24T10:08:33;18.20;99.40
9223;DHT22;7557;51.698;3.942;2023-05-24T10:11:02;18.60;98.60
9223;DHT22;7557;51.698;3.942;2023-05-24T10:13:31;18.70;98.40
9223;DHT22;7557;51.698;3.942;2023-05-24T10:16:00;18.70;98.30
9223;DHT22;7557;51.698;3.942;2023-05-24T10:18:29;18.60;97.00
9223;DHT22;7557;51.698;3.942;2023-05-24T10:20:58;18.60;96.80
9223;DHT22;7557;51.698;3.942;2023-05-24T10:23:29;18.50;97.00
9223;DHT22;7557;51.698;3.942;2023-05-24T10:26:03;18.60;97.30
9223;DHT22;7557;51.698;3.942;2023-05-24T10:28:33;18.50;97.00
9223;DHT22;7557;51.698;3.942;2023-05-24T10:31:06;18.50;97.50
9223;DHT22;7557;51.698;3.942;2023-05-24T10:33:39;18.40;97.60
9223;DHT22;7557;51.698;3.942;2023-05-24T10:36:10;18.20;97.30
9223;DHT22;7557;51.698;3.942;2023-05-24T10:38:40;18.10;97.40
9223;DHT22;7557;51.698;3.942;2023-05-24T10:41:08;18.20;97.80
9223;DHT22;7557;51.698;3.942;2023-05-24T10:43:38;18.30;97.50
9223;DHT22;7557;51.698;3.942;2023-05-24T10:46:08;18.50;97.50
9223;DHT22;7557;51.698;3.942;2023-05-24T10:48:38;18.60;97.70
9223;DHT22;7557;51.698;3.942;2023-05-24T10:51:37;18.70;97.90
9223;DHT22;7557;51.698;3.942;2023-05-24T10:54:12;18.80;96.90
9223;DHT22;7557;51.698;3.942;2023-05-24T10:56:41;18.70;96.90
9223;DHT22;7557;51.698;3.942;2023-05-24T10:59:28;18.60;97.20
9223;DHT22;7557;51.698;3.942;2023-05-24T11:01:56;18.50;96.50
9223;DHT22;7557;51.698;3.942;2023-05-24T11:04:26;18.40;97.00
9223;DHT22;7557;51.698;3.942;2023-05-24T11:06:59;18.50;97.00
9223;DHT22;7557;51.698;3.942;2023-05-24T11:09:28;18.60;96.90
9223;DHT22;7557;51.698;3.942;2023-05-24T11:12:00;18.60;96.50
9223;DHT22;7557;51.698;3.942;2023-05-24T11:14:29;18.70;96.60
9223;DHT22;7557;51.698;3.942;2023-05-24T11:16:57;18.80;96.70
9223;DHT22;7557;51.698;3.942;2023-05-24T11:19:31;18.90;96.20
9223;DHT22;7557;51.698;3.942;2023-05-24T11:22:02;18.90;96.30
9223;DHT22;7557;51.698;3.942;2023-05-24T11:24:31;18.90;96.10
9223;DHT22;7557;51.698;3.942;2023-05-24T11:27:00;18.90;96.30
9223;DHT22;7557;51.698;3.942;2023-05-24T11:29:28;18.90;95.90
9223;DHT22;7557;51.698;3.942;2023-05-24T11:31:57;18.90;95.90
9223;DHT22;7557;51.698;3.942;2023-05-24T11:34:30;18.80;96.00
9223;DHT22;7557;51.698;3.942;2023-05-24T11:36:59;18.80;96.00
9223;DHT22;7557;51.698;3.942;2023-05-24T11:39:30;18.80;96.40
9223;DHT22;7557;51.698;3.942;2023-05-24T11:41:58;18.80;95.80
9223;DHT22;7557;51.698;3.942;2023-05-24T11:44:29;18.80;96.00
9223;DHT22;7557;51.698;3.942;2023-05-24T11:46:58;18.80;96.00
9223;DHT22;7557;51.698;3.942;2023-05-24T11:49:26;18.90;95.80
9223;DHT22;7557;51.698;3.942;2023-05-24T11:51:57;18.90;95.90
9223;DHT22;7557;51.698;3.942;2023-05-24T11:54:26;18.80;95.80
9223;DHT22;7557;51.698;3.942;2023-05-24T11:56:54;18.70;96.00
9223;DHT22;7557;51.698;3.942;2023-05-24T11:59:23;18.60;96.70
9223;DHT22;7557;51.698;3.942;2023-05-24T12:01:56;18.70;96.90
9223;DHT22;7557;51.698;3.942;2023-05-24T12:04:25;18.80;96.80
9223;DHT22;7557;51.698;3.942;2023-05-24T12:06:54;18.90;97.20
9223;DHT22;7557;51.698;3.942;2023-05-24T12:09:22;18.90;97.20
9223;DHT22;7557;51.698;3.942;2023-05-24T12:11:50;19.00;97.30
9223;DHT22;7557;51.698;3.942;2023-05-24T12:14:19;19.00;97.20
9223;DHT22;7557;51.698;3.942;2023-05-24T12:16:49;19.10;97.30
9223;DHT22;7557;51.698;3.942;2023-05-24T12:19:17;19.20;97.20
9223;DHT22;7557;51.698;3.942;2023-05-24T12:21:46;19.20;97.10
9223;DHT22;7557;51.698;3.942;2023-05-24T12:24:16;19.10;96.20
9223;DHT22;7557;51.698;3.942;2023-05-24T12:26:46;19.10;96.80
9223;DHT22;7557;51.698;3.942;2023-05-24T12:29:15;19.10;97.10
9223;DHT22;7557;51.698;3.942;2023-05-24T12:31:46;19.20;97.40
9223;DHT22;7557;51.698;3.942;2023-05-24T12:34:16;19.20;97.00
9223;DHT22;7557;51.698;3.942;2023-05-24T12:36:44;19.20;96.70
9223;DHT22;7557;51.698;3.942;2023-05-24T12:39:28;19.20;96.90
9223;DHT22;7557;51.698;3.942;2023-05-24T12:42:00;19.10;97.60
9223;DHT22;7557;51.698;3.942;2023-05-24T12:44:29;19.20;97.10
9223;DHT22;7557;51.698;3.942;2023-05-24T12:46:57;19.20;96.80
9223;DHT22;7557;51.698;3.942;2023-05-24T12:49:25;19.30;96.40
9223;DHT22;7557;51.698;3.942;2023-05-24T12:51:54;19.20;96.40
9223;DHT22;7557;51.698;3.942;2023-05-24T12:54:24;19.10;96.90
9223;DHT22;7557;51.698;3.942;2023-05-24T12:56:53;19.20;97.20
9223;DHT22;7557;51.698;3.942;2023-05-24T12:59:20;19.10;96.70
9223;DHT22;7557;51.698;3.942;2023-05-24T13:01:48;19.10;97.30
9223;DHT22;7557;51.698;3.942;2023-05-24T13:04:17;19.10;97.00
9223;DHT22;7557;51.698;3.942;2023-05-24T13:06:46;19.10;97.10
9223;DHT22;7557;51.698;3.942;2023-05-24T13:09:14;19.10;97.10
9223;DHT22;7557;51.698;3.942;2023-05-24T13:11:45;19.10;97.20
9223;DHT22;7557;51.698;3.942;2023-05-24T13:14:12;19.10;97.30
9223;DHT22;7557;51.698;3.942;2023-05-24T13:16:41;19.10;97.70
9223;DHT22;7557;51.698;3.942;2023-05-24T13:19:08;19.10;97.30
9223;DHT22;7557;51.698;3.942;2023-05-24T13:21:36;19.10;97.20
9223;DHT22;7557;51.698;3.942;2023-05-24T13:24:04;18.90;97.00
9223;DHT22;7557;51.698;3.942;2023-05-24T13:26:34;18.80;96.90
9223;DHT22;7557;51.698;3.942;2023-05-24T13:29:05;18.70;97.00
9223;DHT22;7557;51.698;3.942;2023-05-24T13:31:33;18.50;97.50
9223;DHT22;7557;51.698;3.942;2023-05-24T13:34:02;18.50;97.70
9223;DHT22;7557;51.698;3.942;2023-05-24T13:36:29;18.30;97.70
9223;DHT22;7557;51.698;3.942;2023-05-24T13:38:57;18.20;97.90
9223;DHT22;7557;51.698;3.942;2023-05-24T13:41:25;18.20;97.60
9223;DHT22;7557;51.698;3.942;2023-05-24T13:43:52;18.30;97.50
9223;DHT22;7557;51.698;3.942;2023-05-24T13:46:22;18.30;96.90
9223;DHT22;7557;51.698;3.942;2023-05-24T13:48:49;18.10;97.10
9223;DHT22;7557;51.698;3.942;2023-05-24T13:51:17;18.10;97.20
9223;DHT22;7557;51.698;3.942;2023-05-24T13:53:44;18.20;97.00
9223;DHT22;7557;51.698;3.942;2023-05-24T13:56:12;18.20;97.10
9223;DHT22;7557;51.698;3.942;2023-05-24T13:58:40;18.30;96.80
9223;DHT22;7557;51.698;3.942;2023-05-24T14:01:09;18.30;97.00
9223;DHT22;7557;51.698;3.942;2023-05-24T14:03:38;18.50;95.80
9223;DHT22;7557;51.698;3.942;2023-05-24T14:06:06;18.50;96.20
9223;DHT22;7557;51.698;3.942;2023-05-24T14:08:34;18.30;97.20
9223;DHT22;7557;51.698;3.942;2023-05-24T14:11:02;18.20;97.40
9223;DHT22;7557;51.698;3.942;2023-05-24T14:13:29;18.20;98.00
9223;DHT22;7557;51.698;3.942;2023-05-24T14:15:57;18.20;97.30
9223;DHT22;7557;51.698;3.942;2023-05-24T14:18:25;18.30;97.00
9223;DHT22;7557;51.698;3.942;2023-05-24T14:20:54;18.20;97.40
9223;DHT22;7557;51.698;3.942;2023-05-24T14:23:22;18.10;97.80
9223;DHT22;7557;51.698;3.942;2023-05-24T14:25:49;18.20;97.60
9223;DHT22;7557;51.698;3.942;2023-05-24T14:28:18;18.20;97.70
9223;DHT22;7557;51.698;3.942;2023-05-24T14:30:45;18.10;97.90
9223;DHT22;7557;51.698;3.942;2023-05-24T14:33:13;18.20;97.70
9223;DHT22;7557;51.698;3.942;2023-05-24T14:35:40;18.20;98.60
9223;DHT22;7557;51.698;3.942;2023-05-24T14:38:10;18.30;98.00
9223;DHT22;7557;51.698;3.942;2023-05-24T14:40:37;18.20;98.00
9223;DHT22;7557;51.698;3.942;2023-05-24T14:43:06;18.20;98.40
9223;DHT22;7557;51.698;3.942;2023-05-24T14:45:35;18.20;98.10
9223;DHT22;7557;51.698;3.942;2023-05-24T14:48:06;18.10;98.20
9223;DHT22;7557;51.698;3.942;2023-05-24T14:50:36;18.10;97.50
9223;DHT22;7557;51.698;3.942;2023-05-24T14:53:04;18.00;98.10
9223;DHT22;7557;51.698;3.942;2023-05-24T14:55:36;18.00;97.70
9223;DHT22;7557;51.698;3.942;2023-05-24T14:58:03;17.80;97.90
9223;DHT22;7557;51.698;3.942;2023-05-24T15:00:35;17.80;97.70
9223;DHT22;7557;51.698;3.942;2023-05-24T15:03:03;17.60;98.00
9223;DHT22;7557;51.698;3.942;2023-05-24T15:05:33;17.60;98.50
9223;DHT22;7557;51.698;3.942;2023-05-24T15:08:01;17.60;98.20
9223;DHT22;7557;51.698;3.942;2023-05-24T15:10:29;17.70;98.40
9223;DHT22;7557;51.698;3.942;2023-05-24T15:12:58;17.50;98.70
9223;DHT22;7557;51.698;3.942;2023-05-24T15:15:26;17.40;99.00
9223;DHT22;7557;51.698;3.942;2023-05-24T15:17:54;17.30;98.80
9223;DHT22;7557;51.698;3.942;2023-05-24T15:20:24;17.20;99.60
9223;DHT22;7557;51.698;3.942;2023-05-24T15:22:52;17.20;99.40
9223;DHT22;7557;51.698;3.942;2023-05-24T15:25:19;17.30;99.20
9223;DHT22;7557;51.698;3.942;2023-05-24T15:27:47;17.30;99.20
9223;DHT22;7557;51.698;3.942;2023-05-24T15:30:18;17.30;99.00
9223;DHT22;7557;51.698;3.942;2023-05-24T15:32:47;17.30;99.60
9223;DHT22;7557;51.698;3.942;2023-05-24T15:35:16;17.20;99.40
9223;DHT22;7557;51.698;3.942;2023-05-24T15:37:44;17.20;99.90
9223;DHT22;7557;51.698;3.942;2023-05-24T15:40:12;17.30;99.90
9223;DHT22;7557;51.698;3.942;2023-05-24T15:42:41;17.30;99.90
9223;DHT22;7557;51.698;3.942;2023-05-24T15:45:09;17.30;99.70
9223;DHT22;7557;51.698;3.942;2023-05-24T15:47:39;17.40;99.70
9223;DHT22;7557;51.698;3.942;2023-05-24T15:50:07;17.40;99.50
9223;DHT22;7557;51.698;3.942;2023-05-24T15:52:35;17.30;99.40
9223;DHT22;7557;51.698;3.942;2023-05-24T15:55:03;17.30;99.40
9223;DHT22;7557;51.698;3.942;2023-05-24T15:57:30;17.20;99.50
9223;DHT22;7557;51.698;3.942;2023-05-24T15:59:58;17.20;99.60
9223;DHT22;7557;51.698;3.942;2023-05-24T16:02:26;17.10;99.70
9223;DHT22;7557;51.698;3.942;2023-05-24T16:04:56;17.10;99.00
9223;DHT22;7557;51.698;3.942;2023-05-24T16:07:23;17.00;99.90
9223;DHT22;7557;51.698;3.942;2023-05-24T16:09:51;17.00;99.60
9223;DHT22;7557;51.698;3.942;2023-05-24T16:12:19;17.10;99.50
9223;DHT22;7557;51.698;3.942;2023-05-24T16:14:46;17.20;99.60
9223;DHT22;7557;51.698;3.942;2023-05-24T16:17:14;17.30;99.40